Time;durP1;ratioP1;P1;durP2;ratioP2;P2;SDS_P1;SDS_P2;PMS_P1;PMS_P2;Temp;Humidity;BMP_temperature;BMP_pressure;BME280_temperature;BME280_humidity;BME280_pressure;Samples;Min_cycle;Max_cycle;Signal;HPM_P1;HPM_P2
2022/04/10 00:00:26;;;;;;;4.72;4.32;;;;;;;;;;5065141;28;20033;-49
2022/04/10 00:02:51;;;;;;;6.07;5.53;;;;;;;;;;5068433;28;20047;-48
2022/04/10 00:05:17;;;;;;;5.68;5.05;;;;;;;;;;5073639;28;20087;-48
2022/04/10 00:07:42;;;;;;;5.63;5.13;;;;;;;;;;5074156;28;20033;-48
2022/04/10 00:10:08;;;;;;;4.78;4.38;;;;;;;;;;5072705;28;20032;-47
2022/04/10 00:12:34;;;;;;;5.28;4.78;;;;;;;;;;5066307;28;20043;-47
2022/04/10 00:14:59;;;;;;;5.13;4.72;;;;;;;;;;5070752;28;20041;-51
2022/04/10 00:17:25;;;;;;;4.80;4.40;;;;;;;;;;5067377;28;20032;-47
2022/04/10 00:19:50;;;;;;;5.43;4.93;;;;;;;;;;5072970;28;20131;-48
2022/04/10 00:22:15;;;;;;;5.03;4.63;;;;;;;;;;5062264;28;20123;-47
2022/04/10 00:24:41;;;;;;;4.57;4.18;;;;;;;;;;5067195;28;20094;-48
2022/04/10 00:27:07;;;;;;;5.07;4.68;;;;;;;;;;5070165;28;20040;-47
2022/04/10 00:29:32;;;;;;;5.93;5.45;;;;;;;;;;5074008;28;20461;-48
2022/04/10 00:31:59;;;;;;;4.65;4.25;;;;;;;;;;5069268;28;20111;-48
2022/04/10 00:34:24;;;;;;;4.80;4.40;;;;;;;;;;5070429;28;20047;-46
2022/04/10 00:36:50;;;;;;;5.13;4.72;;;;;;;;;;5072481;28;20405;-46
2022/04/10 00:39:15;;;;;;;5.68;5.13;;;;;;;;;;5076475;28;20068;-47
2022/04/10 00:41:40;;;;;;;5.10;4.70;;;;;;;;;;5073699;28;20119;-48
2022/04/10 00:44:07;;;;;;;5.80;5.40;;;;;;;;;;5077812;28;20385;-48
2022/04/10 00:46:32;;;;;;;4.80;4.40;;;;;;;;;;5071662;28;20426;-48
2022/04/10 00:48:58;;;;;;;6.82;5.63;;;;;;;;;;5072105;28;20090;-48
2022/04/10 00:51:40;;;;;;;5.97;5.50;;;;;;;;;;5074791;28;20064;-47
2022/04/10 00:54:21;;;;;;;5.50;5.10;;;;;;;;;;5071375;28;20040;-46
2022/04/10 00:56:47;;;;;;;6.07;5.57;;;;;;;;;;5044843;28;20469;-46
2022/04/10 00:59:14;;;;;;;5.00;4.60;;;;;;;;;;5075177;28;20041;-46
2022/04/10 01:01:44;;;;;;;5.47;4.97;;;;;;;;;;5068671;28;20088;-48
2022/04/10 01:04:11;;;;;;;6.78;6.28;;;;;;;;;;5073850;28;20208;-47
2022/04/10 01:06:37;;;;;;;5.28;4.88;;;;;;;;;;5074690;28;20166;-46
2022/04/10 01:09:03;;;;;;;5.28;4.78;;;;;;;;;;5075712;28;20115;-46
2022/04/10 01:11:29;;;;;;;5.00;4.60;;;;;;;;;;5071924;28;20033;-46
2022/04/10 01:13:55;;;;;;;4.65;4.20;;;;;;;;;;5070475;28;20159;-47
2022/04/10 01:16:24;;;;;;;5.45;5.05;;;;;;;;;;5072872;28;20016;-46
2022/04/10 01:18:50;;;;;;;4.65;4.25;;;;;;;;;;5076460;28;20170;-46
2022/04/10 01:21:26;;;;;;;5.82;5.43;;;;;;;;;;5071628;28;20048;-49
2022/04/10 01:23:55;;;;;;;5.60;5.15;;;;;;;;;;5072594;28;20509;-49
2022/04/10 01:26:23;;;;;;;5.75;5.35;;;;;;;;;;5075994;28;20098;-48
2022/04/10 01:29:06;;;;;;;6.47;6.00;;;;;;;;;;5075395;28;20032;-47
2022/04/10 01:31:34;;;;;;;5.97;5.47;;;;;;;;;;5070997;28;20025;-47
2022/04/10 01:34:01;;;;;;;7.15;6.65;;;;;;;;;;5078271;28;20074;-46
2022/04/10 01:36:30;;;;;;;6.72;6.22;;;;;;;;;;5075062;28;20461;-49
2022/04/10 01:38:57;;;;;;;5.60;5.20;;;;;;;;;;5073774;28;20036;-47
2022/04/10 01:41:27;;;;;;;6.00;5.60;;;;;;;;;;5074138;28;20047;-46
2022/04/10 01:43:54;;;;;;;4.50;4.15;;;;;;;;;;5073075;28;20044;-46
2022/04/10 01:46:22;;;;;;;6.13;5.63;;;;;;;;;;5074105;28;20024;-47
2022/04/10 01:48:48;;;;;;;4.65;4.25;;;;;;;;;;5072774;28;20035;-46
2022/04/10 01:51:13;;;;;;;4.60;4.20;;;;;;;;;;5065541;28;20024;-46
2022/04/10 01:53:39;;;;;;;4.93;4.53;;;;;;;;;;5074157;28;20027;-46
2022/04/10 01:56:07;;;;;;;5.40;5.00;;;;;;;;;;5075629;28;20046;-47
2022/04/10 01:58:35;;;;;;;4.93;4.53;;;;;;;;;;5070168;28;20357;-46
2022/04/10 02:01:05;;;;;;;5.32;4.93;;;;;;;;;;5069256;28;20792;-46
2022/04/10 02:03:30;;;;;;;6.05;5.45;;;;;;;;;;5074374;28;20117;-47
2022/04/10 02:05:56;;;;;;;6.25;5.85;;;;;;;;;;5074057;28;20087;-46
2022/04/10 02:08:22;;;;;;;5.80;5.30;;;;;;;;;;5073647;28;20361;-47
2022/04/10 02:10:47;;;;;;;4.07;3.78;;;;;;;;;;5072997;28;20044;-47
2022/04/10 02:13:13;;;;;;;5.15;4.75;;;;;;;;;;5079351;28;20043;-45
2022/04/10 02:15:39;;;;;;;4.35;4.03;;;;;;;;;;5073700;28;20115;-47
2022/04/10 02:18:05;;;;;;;5.50;5.10;;;;;;;;;;5072425;28;20035;-48
2022/04/10 02:20:31;;;;;;;5.10;4.70;;;;;;;;;;5072542;28;20040;-48
2022/04/10 02:22:56;;;;;;;5.28;4.88;;;;;;;;;;5074549;28;20032;-46
2022/04/10 02:25:21;;;;;;;6.15;5.72;;;;;;;;;;5075852;28;20524;-46
2022/04/10 02:27:47;;;;;;;5.45;5.05;;;;;;;;;;5076665;28;20060;-46
2022/04/10 02:30:12;;;;;;;5.28;4.78;;;;;;;;;;5069700;28;20145;-47
2022/04/10 02:32:41;;;;;;;6.40;4.53;;;;;;;;;;5073983;28;20059;-48
2022/04/10 02:35:07;;;;;;;5.13;4.72;;;;;;;;;;5077175;28;20025;-46
2022/04/10 02:37:33;;;;;;;4.80;4.40;;;;;;;;;;5074414;28;20115;-46
2022/04/10 02:39:59;;;;;;;5.50;5.10;;;;;;;;;;5073729;28;20125;-52
2022/04/10 02:42:24;;;;;;;5.88;5.38;;;;;;;;;;5067710;28;20040;-46
2022/04/10 02:44:49;;;;;;;5.40;5.00;;;;;;;;;;5076400;28;20040;-45
2022/04/10 02:47:16;;;;;;;6.70;6.18;;;;;;;;;;5074196;28;20481;-45
2022/04/10 02:49:42;;;;;;;4.93;4.53;;;;;;;;;;5077321;28;20098;-46
2022/04/10 02:52:07;;;;;;;5.00;4.60;;;;;;;;;;5069116;28;20097;-48
2022/04/10 02:54:33;;;;;;;4.82;4.43;;;;;;;;;;5073202;28;20051;-46
2022/04/10 02:56:58;;;;;;;4.10;3.80;;;;;;;;;;5073431;28;20034;-47
2022/04/10 02:59:23;;;;;;;5.32;4.93;;;;;;;;;;5072273;28;20377;-47
2022/04/10 03:01:50;;;;;;;4.55;4.15;;;;;;;;;;5068282;28;20595;-58
2022/04/10 03:04:17;;;;;;;5.20;4.80;;;;;;;;;;5069972;28;20034;-58
2022/04/10 03:06:42;;;;;;;5.18;4.78;;;;;;;;;;5067749;28;20032;-57
2022/04/10 03:09:07;;;;;;;5.53;5.13;;;;;;;;;;5073288;28;20564;-57
2022/04/10 03:11:33;;;;;;;5.55;5.05;;;;;;;;;;5073904;28;20035;-58
2022/04/10 03:13:58;;;;;;;5.68;5.28;;;;;;;;;;5073756;28;20036;-58
2022/04/10 03:16:24;;;;;;;13.23;5.10;;;;;;;;;;5073604;28;20115;-58
2022/04/10 03:18:51;;;;;;;5.15;4.75;;;;;;;;;;5071191;28;20867;-59
2022/04/10 03:21:17;;;;;;;5.70;5.20;;;;;;;;;;5069692;28;20043;-58
2022/04/10 03:23:42;;;;;;;4.63;4.22;;;;;;;;;;5070633;28;20047;-58
2022/04/10 03:26:07;;;;;;;5.90;5.40;;;;;;;;;;5072216;28;20040;-58
2022/04/10 03:28:33;;;;;;;5.55;5.15;;;;;;;;;;5076625;28;20036;-58
2022/04/10 03:30:59;;;;;;;5.32;4.93;;;;;;;;;;5077210;28;20422;-58
2022/04/10 03:33:24;;;;;;;5.47;5.07;;;;;;;;;;5078044;28;20081;-57
2022/04/10 03:35:50;;;;;;;5.55;5.15;;;;;;;;;;5076612;28;20036;-57
2022/04/10 03:38:16;;;;;;;5.18;4.78;;;;;;;;;;5073837;28;20090;-57
2022/04/10 03:40:41;;;;;;;5.93;5.35;;;;;;;;;;5071281;28;20075;-58
2022/04/10 03:43:06;;;;;;;5.53;5.13;;;;;;;;;;5073459;28;20062;-58
2022/04/10 03:45:32;;;;;;;5.93;5.53;;;;;;;;;;5075743;28;20055;-58
2022/04/10 03:47:58;;;;;;;5.60;5.20;;;;;;;;;;5077113;28;20458;-59
2022/04/10 03:50:24;;;;;;;5.35;4.95;;;;;;;;;;5077788;28;20485;-60
2022/04/10 03:52:49;;;;;;;6.30;5.90;;;;;;;;;;5078379;28;20059;-58
2022/04/10 03:55:14;;;;;;;5.97;5.55;;;;;;;;;;5077243;28;20546;-59
2022/04/10 03:57:40;;;;;;;6.82;6.32;;;;;;;;;;5073662;28;20107;-58
2022/04/10 04:00:06;;;;;;;6.03;5.63;;;;;;;;;;5074709;28;20060;-58
2022/04/10 04:02:31;;;;;;;8.15;7.38;;;;;;;;;;5078484;28;20020;-58
2022/04/10 04:04:57;;;;;;;7.00;6.50;;;;;;;;;;5076452;28;20044;-58
2022/04/10 04:07:22;;;;;;;6.70;6.20;;;;;;;;;;5070890;28;20032;-58
2022/04/10 04:09:47;;;;;;;7.07;6.57;;;;;;;;;;5069201;28;20032;-59
2022/04/10 04:12:13;;;;;;;6.90;6.40;;;;;;;;;;5075847;28;20036;-59
2022/04/10 04:14:38;;;;;;;6.95;6.45;;;;;;;;;;5075808;28;20036;-58
2022/04/10 04:17:04;;;;;;;7.65;7.15;;;;;;;;;;5070348;28;20486;-58
2022/04/10 04:19:29;;;;;;;6.80;6.20;;;;;;;;;;5074763;28;20349;-59
2022/04/10 04:21:55;;;;;;;6.78;6.28;;;;;;;;;;5077298;28;20074;-58
2022/04/10 04:24:20;;;;;;;6.75;6.20;;;;;;;;;;5078472;28;20028;-60
2022/04/10 04:26:46;;;;;;;6.40;6.00;;;;;;;;;;5072925;28;20123;-58
2022/04/10 04:29:11;;;;;;;6.13;5.72;;;;;;;;;;5069974;28;20044;-58
2022/04/10 04:31:36;;;;;;;6.63;6.18;;;;;;;;;;5073720;28;20068;-58
2022/04/10 04:34:02;;;;;;;6.35;5.85;;;;;;;;;;5072433;28;20040;-58
2022/04/10 04:36:27;;;;;;;5.28;4.88;;;;;;;;;;5073241;28;20027;-58
2022/04/10 04:38:53;;;;;;;6.40;5.90;;;;;;;;;;5070179;28;20078;-58
2022/04/10 04:41:19;;;;;;;6.80;6.30;;;;;;;;;;5071663;28;20028;-58
2022/04/10 04:43:44;;;;;;;6.45;5.95;;;;;;;;;;5070346;28;20089;-60
2022/04/10 04:46:09;;;;;;;5.90;5.50;;;;;;;;;;5072992;28;20036;-58
2022/04/10 04:48:35;;;;;;;6.50;6.00;;;;;;;;;;5073170;28;20127;-57
2022/04/10 04:51:02;;;;;;;6.63;6.13;;;;;;;;;;5074821;28;20040;-56
2022/04/10 04:53:27;;;;;;;8.13;5.90;;;;;;;;;;5076330;28;20043;-56
2022/04/10 04:55:53;;;;;;;5.55;5.15;;;;;;;;;;5075593;28;20024;-57
2022/04/10 04:58:19;;;;;;;6.90;6.40;;;;;;;;;;5070961;28;20379;-57
2022/04/10 05:00:44;;;;;;;5.50;5.10;;;;;;;;;;5071107;28;20939;-58
2022/04/10 05:03:11;;;;;;;5.60;5.20;;;;;;;;;;5070429;28;20912;-57
2022/04/10 05:05:36;;;;;;;6.43;5.93;;;;;;;;;;5073748;28;20783;-53
2022/04/10 05:08:03;;;;;;;6.32;5.82;;;;;;;;;;5069895;28;20032;-55
2022/04/10 05:10:29;;;;;;;5.03;4.63;;;;;;;;;;5069511;28;20614;-56
2022/04/10 05:12:54;;;;;;;5.60;5.20;;;;;;;;;;5073843;28;20052;-57
2022/04/10 05:15:20;;;;;;;6.07;5.57;;;;;;;;;;5070672;28;20097;-57
2022/04/10 05:17:45;;;;;;;6.38;5.88;;;;;;;;;;5066380;28;20131;-56
2022/04/10 05:20:11;;;;;;;6.05;5.55;;;;;;;;;;5068833;28;20058;-57
2022/04/10 05:22:36;;;;;;;5.82;5.38;;;;;;;;;;5069296;28;20036;-57
2022/04/10 05:25:02;;;;;;;6.07;5.68;;;;;;;;;;5069784;28;20039;-57
2022/04/10 05:27:27;;;;;;;5.63;5.22;;;;;;;;;;5071546;28;20866;-57
2022/04/10 05:29:52;;;;;;;5.35;4.95;;;;;;;;;;5075937;28;20028;-56
2022/04/10 05:32:18;;;;;;;5.85;5.35;;;;;;;;;;5074480;28;20161;-46
2022/04/10 05:34:44;;;;;;;6.32;5.82;;;;;;;;;;5070181;28;20101;-48
2022/04/10 05:37:09;;;;;;;6.40;5.90;;;;;;;;;;5075781;28;20029;-47
2022/04/10 05:39:34;;;;;;;5.80;5.40;;;;;;;;;;5078643;28;20453;-46
2022/04/10 05:42:00;;;;;;;5.18;4.78;;;;;;;;;;5074882;28;20445;-46
2022/04/10 05:44:25;;;;;;;5.43;4.93;;;;;;;;;;5070752;28;20607;-47
2022/04/10 05:46:50;;;;;;;5.25;4.85;;;;;;;;;;5072878;28;20454;-47
2022/04/10 05:49:16;;;;;;;6.53;6.03;;;;;;;;;;5074356;28;20420;-47
2022/04/10 05:51:41;;;;;;;5.20;4.80;;;;;;;;;;5075047;28;20028;-49
2022/04/10 05:54:07;;;;;;;5.47;4.97;;;;;;;;;;5069893;28;20888;-46
2022/04/10 05:56:32;;;;;;;4.70;4.30;;;;;;;;;;5068797;28;20089;-46
2022/04/10 05:58:58;;;;;;;5.80;5.40;;;;;;;;;;5069466;28;20369;-47
2022/04/10 06:01:23;;;;;;;5.55;5.15;;;;;;;;;;5073457;28;20453;-45
2022/04/10 06:03:49;;;;;;;5.60;5.20;;;;;;;;;;5070322;28;20883;-47
2022/04/10 06:06:15;;;;;;;5.10;4.70;;;;;;;;;;5069895;28;20054;-46
2022/04/10 06:08:40;;;;;;;6.53;6.03;;;;;;;;;;5072811;28;20131;-46
2022/04/10 06:11:06;;;;;;;4.90;4.50;;;;;;;;;;5078008;28;20127;-48
2022/04/10 06:13:31;;;;;;;5.70;5.25;;;;;;;;;;5073783;28;20062;-46
2022/04/10 06:15:57;;;;;;;5.90;5.50;;;;;;;;;;5068128;28;20032;-48
2022/04/10 06:18:22;;;;;;;5.00;4.60;;;;;;;;;;5073965;28;20035;-47
2022/04/10 06:20:47;;;;;;;5.35;4.88;;;;;;;;;;5071820;28;20028;-47
2022/04/10 06:23:13;;;;;;;4.60;4.20;;;;;;;;;;5073303;28;20103;-47
2022/04/10 06:25:42;;;;;;;4.75;4.35;;;;;;;;;;5067295;28;20051;-47
2022/04/10 06:28:08;;;;;;;5.13;4.72;;;;;;;;;;5063467;28;20038;-46
2022/04/10 06:30:34;;;;;;;5.43;4.93;;;;;;;;;;5065441;28;20469;-47
2022/04/10 06:32:59;;;;;;;5.82;5.38;;;;;;;;;;5069254;28;20036;-46
2022/04/10 06:35:24;;;;;;;8.27;5.80;;;;;;;;;;5068980;28;20033;-48
2022/04/10 06:37:50;;;;;;;5.40;4.93;;;;;;;;;;5067921;28;20036;-47
2022/04/10 06:40:15;;;;;;;4.97;4.57;;;;;;;;;;5074911;28;20134;-50
2022/04/10 06:42:41;;;;;;;6.72;5.93;;;;;;;;;;5072660;28;20040;-48
2022/04/10 06:45:07;;;;;;;4.78;4.38;;;;;;;;;;5064636;28;20032;-46
2022/04/10 06:47:32;;;;;;;5.18;4.78;;;;;;;;;;5062558;28;20094;-45
2022/04/10 06:49:58;;;;;;;5.72;5.22;;;;;;;;;;5075368;28;20028;-46
2022/04/10 06:52:24;;;;;;;5.32;4.93;;;;;;;;;;5075565;28;20033;-46
2022/04/10 06:54:49;;;;;;;5.13;4.72;;;;;;;;;;5077347;28;20028;-46
2022/04/10 06:57:15;;;;;;;10.65;5.45;;;;;;;;;;5069716;28;20024;-48
2022/04/10 06:59:40;;;;;;;5.07;4.68;;;;;;;;;;5070993;28;20036;-46
2022/04/10 07:02:06;;;;;;;5.35;4.85;;;;;;;;;;5078990;28;20140;-46
2022/04/10 07:04:31;;;;;;;5.47;5.07;;;;;;;;;;5076541;28;20044;-48
2022/04/10 07:06:57;;;;;;;5.50;4.72;;;;;;;;;;5073805;28;20055;-47
2022/04/10 07:09:22;;;;;;;6.15;5.65;;;;;;;;;;5076924;28;20027;-47
2022/04/10 07:11:48;;;;;;;5.32;4.82;;;;;;;;;;5075512;28;20036;-47
2022/04/10 07:14:13;;;;;;;8.45;5.38;;;;;;;;;;5078213;28;20028;-48
2022/04/10 07:16:38;;;;;;;4.90;4.50;;;;;;;;;;5070672;28;20391;-47
2022/04/10 07:19:05;;;;;;;4.72;4.32;;;;;;;;;;5070823;28;20110;-47
2022/04/10 07:24:15;;;;;;;4.55;3.97;;;;;;;;;;5077172;28;20033;-46
2022/04/10 07:26:40;;;;;;;4.20;3.90;;;;;;;;;;5071278;28;20040;-47
2022/04/10 07:29:06;;;;;;;4.50;4.10;;;;;;;;;;5067789;28;20365;-49
2022/04/10 07:31:31;;;;;;;5.38;4.88;;;;;;;;;;5075373;28;20477;-47
2022/04/10 07:33:57;;;;;;;5.10;4.70;;;;;;;;;;5068744;28;20089;-47
2022/04/10 07:36:22;;;;;;;4.97;4.57;;;;;;;;;;5069601;28;20333;-46
2022/04/10 07:38:47;;;;;;;5.82;5.32;;;;;;;;;;5071032;28;20490;-46
2022/04/10 07:41:13;;;;;;;5.47;5.03;;;;;;;;;;5076073;28;20043;-46
2022/04/10 07:43:38;;;;;;;4.97;4.50;;;;;;;;;;5076697;28;20116;-46
2022/04/10 07:48:48;;;;;;;5.07;4.68;;;;;;;;;;5073177;28;20488;-46
2022/04/10 07:51:13;;;;;;;4.80;4.40;;;;;;;;;;5069879;28;20042;-46
2022/04/10 07:53:38;;;;;;;5.50;5.10;;;;;;;;;;5081812;28;20032;-46
2022/04/10 07:56:04;;;;;;;4.68;4.28;;;;;;;;;;5080003;28;20039;-46
2022/04/10 07:58:29;;;;;;;5.43;5.03;;;;;;;;;;5076416;28;20043;-47
2022/04/10 08:00:54;;;;;;;5.28;4.88;;;;;;;;;;5074281;28;20032;-46
2022/04/10 08:03:20;;;;;;;5.88;5.35;;;;;;;;;;5078362;28;20028;-45
2022/04/10 08:05:45;;;;;;;6.05;5.53;;;;;;;;;;5076894;28;20033;-45
2022/04/10 08:08:11;;;;;;;6.05;5.55;;;;;;;;;;5075426;28;20109;-46
2022/04/10 08:10:37;;;;;;;5.50;5.00;;;;;;;;;;5072939;28;20036;-47
2022/04/10 08:13:03;;;;;;;5.68;5.25;;;;;;;;;;5069827;28;20043;-45
2022/04/10 08:15:29;;;;;;;6.38;5.88;;;;;;;;;;5071905;28;20028;-46
2022/04/10 08:17:56;;;;;;;6.28;5.78;;;;;;;;;;5078663;28;20044;-47
2022/04/10 08:20:22;;;;;;;5.47;5.07;;;;;;;;;;5070225;28;20043;-46
2022/04/10 08:22:49;;;;;;;5.25;4.82;;;;;;;;;;5069986;28;20031;-46
2022/04/10 08:25:16;;;;;;;4.97;4.57;;;;;;;;;;5075259;28;20377;-46
2022/04/10 08:27:42;;;;;;;5.35;4.80;;;;;;;;;;5080714;28;20112;-47
2022/04/10 08:30:09;;;;;;;4.97;4.57;;;;;;;;;;5071537;28;20127;-47
2022/04/10 08:32:39;;;;;;;5.65;5.22;;;;;;;;;;5071072;28;20165;-47
2022/04/10 08:35:05;;;;;;;5.07;4.68;;;;;;;;;;5068440;28;20043;-46
2022/04/10 08:37:31;;;;;;;4.47;4.07;;;;;;;;;;5070403;28;20089;-47
2022/04/10 08:39:56;;;;;;;5.30;4.80;;;;;;;;;;5053040;28;20044;-48
2022/04/10 08:42:22;;;;;;;6.03;5.57;;;;;;;;;;5071148;28;20060;-47
2022/04/10 08:44:47;;;;;;;5.65;5.10;;;;;;;;;;5076410;28;20047;-46
2022/04/10 08:47:20;;;;;;;5.53;5.13;;;;;;;;;;5073352;28;20085;-48
2022/04/10 08:49:46;;;;;;;11.38;5.25;;;;;;;;;;5076506;28;20541;-48
2022/04/10 08:52:12;;;;;;;5.05;4.65;;;;;;;;;;5070725;28;20065;-48
2022/04/10 08:54:40;;;;;;;5.30;4.90;;;;;;;;;;5076505;28;20683;-50
2022/04/10 08:57:06;;;;;;;5.45;4.95;;;;;;;;;;5073734;28;20082;-50
2022/04/10 08:59:32;;;;;;;5.55;5.15;;;;;;;;;;5075035;28;20562;-47
2022/04/10 09:01:57;;;;;;;5.00;4.60;;;;;;;;;;5068038;28;20493;-48
2022/04/10 09:04:23;;;;;;;5.43;5.03;;;;;;;;;;5076088;28;20119;-49
2022/04/10 09:07:07;;;;;;;5.47;5.07;;;;;;;;;;5073808;28;20097;-49
2022/04/10 09:09:34;;;;;;;7.53;6.93;;;;;;;;;;5074015;28;20024;-48
2022/04/10 09:11:59;;;;;;;7.00;6.45;;;;;;;;;;5067299;28;20044;-50
2022/04/10 09:14:34;;;;;;;5.38;4.97;;;;;;;;;;5075054;28;20131;-48
2022/04/10 09:17:22;;;;;;;6.20;5.70;;;;;;;;;;5077539;28;20057;-47
2022/04/10 09:19:53;;;;;;;6.30;5.80;;;;;;;;;;5077209;28;20334;-48
2022/04/10 09:22:38;;;;;;;5.78;5.28;;;;;;;;;;5070165;28;20035;-50
2022/04/10 09:25:16;;;;;;;5.85;5.43;;;;;;;;;;5070073;28;20616;-47
2022/04/10 09:27:47;;;;;;;5.85;5.45;;;;;;;;;;5068672;28;20063;-46
2022/04/10 09:30:18;;;;;;;6.40;5.90;;;;;;;;;;5063964;28;20036;-59
2022/04/10 09:32:49;;;;;;;5.10;4.70;;;;;;;;;;5069894;28;20457;-58
2022/04/10 09:35:17;;;;;;;10.23;6.13;;;;;;;;;;5069177;28;20040;-58
2022/04/10 09:37:48;;;;;;;5.78;5.28;;;;;;;;;;5069943;28;20040;-58
2022/04/10 09:40:28;;;;;;;6.60;5.70;;;;;;;;;;5069574;28;20060;-58
2022/04/10 09:43:10;;;;;;;5.65;5.25;;;;;;;;;;5065386;28;20036;-59
2022/04/10 09:45:40;;;;;;;5.25;4.85;;;;;;;;;;5066759;28;20033;-59
2022/04/10 09:48:21;;;;;;;5.90;5.40;;;;;;;;;;5067380;28;20056;-59
2022/04/10 09:50:48;;;;;;;6.35;5.93;;;;;;;;;;5067847;28;20032;-61
2022/04/10 09:53:14;;;;;;;6.93;6.43;;;;;;;;;;5064396;28;20044;-59
2022/04/10 09:55:42;;;;;;;6.10;5.60;;;;;;;;;;5064605;28;20036;-59
2022/04/10 09:58:10;;;;;;;6.57;6.07;;;;;;;;;;5065143;28;20049;-59
2022/04/10 10:00:42;;;;;;;5.57;5.18;;;;;;;;;;5062505;28;20048;-59
2022/04/10 10:03:09;;;;;;;4.82;4.43;;;;;;;;;;5063339;28;20389;-59
2022/04/10 10:05:35;;;;;;;6.07;5.57;;;;;;;;;;5066368;28;20185;-59
2022/04/10 10:08:01;;;;;;;5.20;4.80;;;;;;;;;;5067587;28;20041;-58
2022/04/10 10:10:37;;;;;;;5.40;5.00;;;;;;;;;;5067835;28;20114;-58
2022/04/10 10:13:07;;;;;;;6.72;6.22;;;;;;;;;;5061772;28;20036;-58
2022/04/10 10:15:34;;;;;;;5.63;5.13;;;;;;;;;;5066532;28;20115;-58
2022/04/10 10:18:05;;;;;;;5.28;4.88;;;;;;;;;;5068347;28;20055;-59
2022/04/10 10:20:31;;;;;;;6.18;5.68;;;;;;;;;;5067348;28;20056;-60
2022/04/10 10:22:59;;;;;;;5.95;5.55;;;;;;;;;;5066553;28;20372;-58
2022/04/10 10:25:34;;;;;;;6.00;5.60;;;;;;;;;;5067002;28;20039;-59
2022/04/10 10:28:15;;;;;;;6.20;5.70;;;;;;;;;;5068744;28;20485;-59
2022/04/10 10:31:09;;;;;;;6.15;5.70;;;;;;;;;;5067493;28;20036;-59
2022/04/10 10:33:38;;;;;;;6.15;5.70;;;;;;;;;;5067038;28;20039;-59
2022/04/10 10:36:08;;;;;;;6.45;5.97;;;;;;;;;;5072370;28;20085;-57
2022/04/10 10:38:33;;;;;;;6.00;5.60;;;;;;;;;;5074957;28;20036;-60
2022/04/10 10:41:11;;;;;;;6.40;5.93;;;;;;;;;;5073579;28;20366;-59
2022/04/10 10:43:36;;;;;;;7.03;6.53;;;;;;;;;;5075046;28;20036;-59
2022/04/10 10:46:02;;;;;;;7.10;6.55;;;;;;;;;;5075399;28;20481;-59
2022/04/10 10:48:38;;;;;;;5.95;5.55;;;;;;;;;;5076286;28;20032;-58
2022/04/10 10:51:10;;;;;;;6.50;6.05;;;;;;;;;;5075629;28;20067;-56
2022/04/10 10:53:44;;;;;;;6.75;6.25;;;;;;;;;;5074084;28;20051;-56
2022/04/10 10:56:37;;;;;;;6.70;6.20;;;;;;;;;;5074713;28;20028;-55
2022/04/10 10:59:22;;;;;;;6.97;6.47;;;;;;;;;;5074272;28;20032;-55
2022/04/10 11:02:08;;;;;;;7.72;7.22;;;;;;;;;;5075348;28;20523;-56
2022/04/10 11:04:50;;;;;;;9.90;9.30;;;;;;;;;;5073085;28;20036;-55
2022/04/10 11:07:18;;;;;;;7.88;7.38;;;;;;;;;;5069608;28;20028;-57
2022/04/10 11:09:54;;;;;;;8.45;7.75;;;;;;;;;;5076307;28;20044;-56
2022/04/10 11:12:22;;;;;;;7.93;7.18;;;;;;;;;;5071396;28;20058;-57
2022/04/10 11:14:51;;;;;;;10.57;9.98;;;;;;;;;;5072901;28;20028;-57
2022/04/10 11:17:21;;;;;;;11.27;10.52;;;;;;;;;;5072566;28;20028;-57
2022/04/10 11:19:54;;;;;;;10.52;9.82;;;;;;;;;;5076590;28;20086;-57
2022/04/10 11:22:30;;;;;;;9.40;8.77;;;;;;;;;;5079853;28;20055;-58
2022/04/10 11:25:00;;;;;;;11.10;10.40;;;;;;;;;;5077115;28;20032;-57
2022/04/10 11:27:51;;;;;;;8.40;7.80;;;;;;;;;;5074029;28;20029;-57
2022/04/10 11:30:39;;;;;;;;;;;;;;;;;;5075386;28;20110;-56
2022/04/10 11:33:06;;;;;;;9.70;9.00;;;;;;;;;;5076002;28;20242;-57
2022/04/10 11:35:36;;;;;;;8.07;7.57;;;;;;;;;;5077922;28;20028;-56
2022/04/10 11:38:06;;;;;;;7.45;6.82;;;;;;;;;;5078804;28;20062;-57
2022/04/10 11:40:34;;;;;;;11.02;10.32;;;;;;;;;;5075491;28;20028;-58
2022/04/10 11:43:02;;;;;;;10.85;10.05;;;;;;;;;;5074675;28;20047;-57
2022/04/10 11:45:30;;;;;;;9.45;8.85;;;;;;;;;;5081803;28;20103;-57
2022/04/10 11:47:56;;;;;;;11.93;10.98;;;;;;;;;;5075024;28;20036;-57
2022/04/10 11:50:22;;;;;;;13.43;12.63;;;;;;;;;;5074043;28;20051;-58
2022/04/10 11:53:11;;;;;;;14.75;13.77;;;;;;;;;;5076145;28;20446;-57
2022/04/10 11:55:47;;;;;;;16.80;15.80;;;;;;;;;;5077127;28;20032;-57
2022/04/10 11:58:21;;;;;;;12.57;11.77;;;;;;;;;;5072691;28;20028;-58
2022/04/10 12:00:57;;;;;;;13.13;12.32;;;;;;;;;;5077051;28;20028;-59
2022/04/10 12:03:24;;;;;;;11.98;11.18;;;;;;;;;;5072688;28;20090;-59
2022/04/10 12:05:50;;;;;;;18.95;17.90;;;;;;;;;;5076978;28;20112;-59
2022/04/10 12:08:16;;;;;;;14.32;13.48;;;;;;;;;;5075797;28;20051;-58
2022/04/10 12:10:51;;;;;;;15.77;14.77;;;;;;;;;;5076369;28;20029;-59
2022/04/10 12:13:16;;;;;;;11.68;10.90;;;;;;;;;;5058503;28;20135;-59
2022/04/10 12:15:42;;;;;;;13.55;12.75;;;;;;;;;;5073268;28;20111;-58
2022/04/10 12:18:09;;;;;;;19.88;18.58;;;;;;;;;;5074692;28;20043;-57
2022/04/10 12:20:43;;;;;;;12.18;11.48;;;;;;;;;;5076519;28;20044;-59
2022/04/10 12:23:25;;;;;;;14.82;13.80;;;;;;;;;;5077980;28;20089;-59
2022/04/10 12:25:54;;;;;;;10.30;9.35;;;;;;;;;;5062145;28;20032;-58
2022/04/10 12:28:19;;;;;;;10.38;9.38;;;;;;;;;;5074278;28;20403;-59
2022/04/10 12:30:46;;;;;;;10.45;9.75;;;;;;;;;;5078766;28;20115;-59
2022/04/10 12:33:12;;;;;;;10.85;10.15;;;;;;;;;;5078501;28;20037;-55
2022/04/10 12:35:39;;;;;;;12.13;11.43;;;;;;;;;;5073150;28;20064;-53
2022/04/10 12:38:05;;;;;;;24.80;23.33;;;;;;;;;;5073392;28;20077;-57
2022/04/10 12:40:30;;;;;;;10.70;10.00;;;;;;;;;;5073966;28;20930;-58
2022/04/10 12:43:00;;;;;;;14.60;13.75;;;;;;;;;;5073939;28;20055;-58
2022/04/10 12:45:30;;;;;;;17.38;16.38;;;;;;;;;;5074179;28;20028;-58
2022/04/10 12:47:56;;;;;;;21.63;20.42;;;;;;;;;;5074630;28;20063;-57
2022/04/10 12:50:23;;;;;;;21.88;20.67;;;;;;;;;;5075921;28;20068;-58
2022/04/10 12:52:52;;;;;;;28.25;26.75;;;;;;;;;;5073265;28;20036;-56
2022/04/10 12:55:29;;;;;;;27.38;25.88;;;;;;;;;;5073878;28;20369;-56
2022/04/10 12:58:03;;;;;;;29.25;27.73;;;;;;;;;;5072372;28;20032;-56
2022/04/10 13:00:38;;;;;;;26.65;25.17;;;;;;;;;;5074036;28;20036;-56
2022/04/10 13:03:23;;;;;;;26.15;24.67;;;;;;;;;;5077183;28;20036;-56
2022/04/10 13:05:59;;;;;;;25.33;23.92;;;;;;;;;;5077438;28;20479;-55
2022/04/10 13:08:27;;;;;;;23.17;21.95;;;;;;;;;;5070754;28;20032;-57
2022/04/10 13:10:56;;;;;;;16.92;15.98;;;;;;;;;;5069554;28;20032;-57
2022/04/10 13:13:21;;;;;;;28.42;26.58;;;;;;;;;;5075139;28;20315;-55
2022/04/10 13:15:48;;;;;;;13.18;12.38;;;;;;;;;;5075111;28;20086;-58
2022/04/10 13:18:14;;;;;;;8.15;7.65;;;;;;;;;;5072844;28;20042;-59
2022/04/10 13:20:40;;;;;;;9.13;8.50;;;;;;;;;;5078591;28;20121;-59
2022/04/10 13:23:06;;;;;;;7.90;7.30;;;;;;;;;;5078577;28;20349;-59
2022/04/10 13:25:32;;;;;;;15.15;14.15;;;;;;;;;;5078107;28;20079;-59
2022/04/10 13:27:59;;;;;;;14.23;13.27;;;;;;;;;;5075481;28;20033;-59
2022/04/10 13:30:25;;;;;;;20.08;18.63;;;;;;;;;;5077054;28;20107;-59
2022/04/10 13:32:50;;;;;;;11.98;11.23;;;;;;;;;;5075375;28;20036;-58
2022/04/10 13:35:16;;;;;;;24.20;22.73;;;;;;;;;;5079030;28;20122;-58
2022/04/10 13:37:45;;;;;;;22.25;20.98;;;;;;;;;;5072358;28;20035;-56
2022/04/10 13:40:15;;;;;;;23.98;22.55;;;;;;;;;;5072823;28;20036;-57
2022/04/10 13:42:43;;;;;;;31.55;29.95;;;;;;;;;;5071962;28;20504;-54
2022/04/10 13:45:09;;;;;;;30.58;28.98;;;;;;;;;;5079197;28;20051;-54
2022/04/10 13:47:35;;;;;;;36.30;34.40;;;;;;;;;;5071980;28;20043;-56
2022/04/10 13:50:01;;;;;;;42.75;40.28;;;;;;;;;;5075595;28;20032;-52
2022/04/10 13:52:26;;;;;;;19.77;18.67;;;;;;;;;;5075125;28;20473;-57
2022/04/10 13:54:52;;;;;;;18.42;17.42;;;;;;;;;;5077152;28;20058;-54
2022/04/10 13:57:18;;;;;;;15.63;14.73;;;;;;;;;;5072146;28;20036;-53
2022/04/10 13:59:44;;;;;;;32.50;30.13;;;;;;;;;;5068192;28;20059;-55
2022/04/10 14:02:10;;;;;;;19.70;18.58;;;;;;;;;;5069973;28;20032;-56
2022/04/10 14:04:36;;;;;;;27.52;25.63;;;;;;;;;;5072110;28;20044;-55
2022/04/10 14:07:01;;;;;;;27.73;26.17;;;;;;;;;;5067315;28;20040;-55
2022/04/10 14:09:27;;;;;;;15.32;14.30;;;;;;;;;;5068416;28;20036;-56
2022/04/10 14:11:52;;;;;;;11.88;11.13;;;;;;;;;;5071564;28;20033;-54
2022/04/10 14:14:18;;;;;;;11.15;9.02;;;;;;;;;;5068016;28;20119;-55
2022/04/10 14:16:43;;;;;;;8.70;8.10;;;;;;;;;;5067885;28;20039;-56
2022/04/10 14:19:09;;;;;;;7.93;7.10;;;;;;;;;;5069614;28;20039;-55
2022/04/10 14:21:34;;;;;;;9.90;9.15;;;;;;;;;;5068836;28;20049;-56
2022/04/10 14:24:00;;;;;;;16.75;15.85;;;;;;;;;;5071748;28;20369;-56
2022/04/10 14:26:26;;;;;;;20.75;19.58;;;;;;;;;;5070998;28;20024;-57
2022/04/10 14:28:51;;;;;;;16.33;15.20;;;;;;;;;;5068745;28;20362;-56
2022/04/10 14:31:17;;;;;;;16.95;15.98;;;;;;;;;;5068969;28;20180;-55
2022/04/10 14:33:42;;;;;;;17.88;16.88;;;;;;;;;;5066912;28;20082;-56
2022/04/10 14:36:08;;;;;;;19.27;18.20;;;;;;;;;;5070634;28;20032;-56
2022/04/10 14:38:33;;;;;;;26.75;25.35;;;;;;;;;;5069542;28;20037;-55
2022/04/10 14:40:59;;;;;;;25.27;23.95;;;;;;;;;;5069295;28;20081;-56
2022/04/10 14:43:25;;;;;;;28.15;26.58;;;;;;;;;;5067651;28;20040;-56
2022/04/10 14:45:50;;;;;;;31.70;29.98;;;;;;;;;;5067979;28;20439;-58